Kinkungwa Airport


Codes: FZOD/KLY
Name: Kinkungwa Airport
City: Kalima
Country: Congo [DRC]
Elevation: 1808 ft.

Photos at Kinkungwa Airport


   Photos courtesy of SpottingLog. You can add your own sightings and photos by signing up for a free trial today.



No photos found.

Weather at Kinkungwa Airport


Time (UTC)DescriptionTempratureWindCloud coverageVisibilityPressureHumidity
21-Feb-2024 03:00Overcast Clouds23°C2 mph, N90%10000m1008hPa95%
21-Feb-2024 06:00Light Rain24°C2 mph, N91%10000m1009hPa87%
21-Feb-2024 09:00Overcast Clouds33°C2 mph, NW99%10000m1009hPa48%
21-Feb-2024 12:00Overcast Clouds36°C2 mph, NW92%10000m1004hPa39%
21-Feb-2024 15:00Light Rain28°C4 mph, E95%10000m1005hPa73%
21-Feb-2024 18:00Light Rain23°C2 mph, SW97%10000m1006hPa92%
21-Feb-2024 21:00Light Rain22°C2 mph, E88%10000m1008hPa97%
22-Feb-2024 00:00Light Rain22°C0 mph, SE81%10000m1007hPa98%
22-Feb-2024 03:00Light Rain21°C0 mph, SW88%10000m1008hPa99%
22-Feb-2024 06:00Overcast Clouds23°C0 mph, E87%10000m1010hPa94%
22-Feb-2024 09:00Overcast Clouds33°C2 mph, SE97%10000m1008hPa50%
22-Feb-2024 12:00Overcast Clouds34°C2 mph, N85%10000m1003hPa44%
22-Feb-2024 15:00Broken Clouds31°C2 mph, N78%10000m1003hPa57%
22-Feb-2024 18:00Broken Clouds26°C2 mph, SW58%10000m1006hPa81%
22-Feb-2024 21:00Light Rain23°C2 mph, SW91%10000m1008hPa94%
23-Feb-2024 00:00Light Rain22°C2 mph, S93%10000m1007hPa98%
23-Feb-2024 03:00Overcast Clouds22°C2 mph, SE99%10000m1008hPa99%
23-Feb-2024 06:00Overcast Clouds24°C2 mph, SE99%10000m1009hPa92%
23-Feb-2024 09:00Overcast Clouds34°C2 mph, S96%10000m1009hPa49%
23-Feb-2024 12:00Light Rain32°C2 mph, W90%10000m1005hPa54%
23-Feb-2024 15:00Light Rain26°C4 mph, SW100%10000m1005hPa80%
23-Feb-2024 18:00Light Rain22°C2 mph, S94%10000m1009hPa99%
23-Feb-2024 21:00Light Rain21°C2 mph, SE100%10000m1010hPa99%
24-Feb-2024 00:00Overcast Clouds21°C2 mph, S100%10000m1009hPa99%
24-Feb-2024 03:00Light Rain20°C2 mph, SE100%10000m1010hPa99%
24-Feb-2024 06:00Light Rain23°C2 mph, SE98%10000m1012hPa96%
24-Feb-2024 09:00Overcast Clouds32°C0 mph, N100%10000m1011hPa50%
24-Feb-2024 12:00Overcast Clouds34°C4 mph, W97%10000m1006hPa43%
24-Feb-2024 15:00Light Rain27°C2 mph, SE60%10000m1006hPa79%
24-Feb-2024 18:00Moderate Rain22°C4 mph, S80%10000m1010hPa99%
24-Feb-2024 21:00Light Rain22°C2 mph, SW100%10000m1013hPa99%
25-Feb-2024 00:00Light Rain21°C2 mph, SW100%10000m1011hPa100%
25-Feb-2024 03:00Light Rain21°C2 mph, SE100%7057m1011hPa99%
25-Feb-2024 06:00Light Rain21°C2 mph, NE100%10000m1014hPa99%
25-Feb-2024 09:00Light Rain23°C2 mph, NW100%10000m1015hPa90%
25-Feb-2024 12:00Light Rain26°C2 mph, W100%10000m1010hPa77%
25-Feb-2024 15:00Light Rain25°C2 mph, W100%10000m1008hPa86%
25-Feb-2024 18:00Light Rain22°C0 mph, NW98%10000m1011hPa97%
25-Feb-2024 21:00Light Rain22°C2 mph, W97%10000m1013hPa98%
26-Feb-2024 00:00Light Rain22°C2 mph, W98%10000m1011hPa99%